Plancius — PBQK — position and weather

sailwx.info

Track history (hours):
 
Tides and Currents Weather Stations Pressure Air Temp Water Temp Dewpoint Dewpoint Depression Visibility Wind Speed Wind Dir Waves Ship Positions

Plancius

Last reported at 2019-Aug-18 20:39 UTC. Time now 2019-Aug-22 10:09 UTC.
Position N 79°21' E 009°41'.

Length 90 m; draft 5.2 m.

Type: Passenger vessel. MMSI: 246573000.

Date/timePositionNaut miles runAvg speedWind from/ knotsBaromVisibWave heightAir tempDewpointWater temp
2019-Aug-18 20:39N 79°21' E 009°41'210.5
2019-Aug-18 20:29N 79°20' E 009°43'510.7
2019-Aug-18 20:00N 79°14' E 009°50'510.4
2019-Aug-18 19:30N 79°10' E 009°58'510.8
2019-Aug-18 19:00N 79°07' E 010°23'610.8
2019-Aug-18 18:30N 79°04' E 010°48'510.8
2019-Aug-18 18:00N 79°02' E 011°14'1 2.5
2019-Aug-18 17:29N 79°02' E 011°21'3 6.1
2019-Aug-18 17:00N 78°60' E 011°31'5 9.6
2019-Aug-18 16:29N 78°57' E 011°53'1 2.0
2019-Aug-18 15:59N 78°56' E 011°55'0 0.0
2019-Aug-18 15:29N 78°56' E 011°55'0 0.0
2019-Aug-18 14:59N 78°56' E 011°55'0 0.0
2019-Aug-18 14:29N 78°56' E 011°55'0 0.0
2019-Aug-18 13:59N 78°56' E 011°55'0 0.0
2019-Aug-18 13:29N 78°56' E 011°55'1 1.5
2019-Aug-18 13:00N 78°56' E 011°59'5 9.7
2019-Aug-18 12:29N 78°54' E 012°22'0 0.9
2019-Aug-18 12:00N 78°54' E 012°20'3 5.4
2019-Aug-18 11:30N 78°55' E 012°08'2 4.0
2019-Aug-18 11:00N 78°57' E 012°04'0 0.0
2019-Aug-18 10:30N 78°57' E 012°04'0 0.0
2019-Aug-18 10:00N 78°57' E 012°04'0 0.0
2019-Aug-18 09:30N 78°57' E 012°04'0 0.0
2019-Aug-18 09:00N 78°57' E 012°04'0 0.0
2019-Aug-18 08:30N 78°57' E 012°04'0 0.0
2019-Aug-18 08:00N 78°57' E 012°04'3 3.4
2019-Aug-18 07:00N 78°59' E 011°47'0 0.5
2019-Aug-18 06:30N 78°58' E 011°46'3 5.4
2019-Aug-18 06:00N 78°59' E 011°33'4 8.0
2019-Aug-18 05:30N 78°60' E 011°13'4 8.2
2019-Aug-18 05:00N 78°59' E 010°51'4 8.1
2019-Aug-18 04:30N 78°58' E 010°30'4 8.7
2019-Aug-18 04:00N 78°56' E 010°11'710.8
2019-Aug-18 03:19N 78°49' E 010°13'1010.8
2019-Aug-18 02:25N 78°39' E 010°19'1310.9
2019-Aug-18 01:12N 78°27' E 010°46'210.4
2019-Aug-18 01:00N 78°25' E 010°52'510.2
2019-Aug-18 00:28N 78°20' E 011°05'510.2
2019-Aug-18 00:00N 78°16' E 011°17'510.4
2019-Aug-17 23:30N 78°12' E 011°32'510.7
2019-Aug-17 23:00N 78°08' E 011°51'510.7
2019-Aug-17 22:30N 78°09' E 012°17'510.8
2019-Aug-17 22:00N 78°09' E 012°44'510.9
2019-Aug-17 21:30N 78°10' E 013°10'510.7
2019-Aug-17 21:00N 78°10' E 013°36'510.7
2019-Aug-17 20:30N 78°12' E 014°01'510.5
2019-Aug-17 20:00N 78°13' E 014°26'510.4
2019-Aug-17 19:30N 78°14' E 014°50'5 9.9
2019-Aug-17 19:00N 78°16' E 015°14'5 9.1
2019-Aug-17 18:30N 78°15' E 015°36'1 1.0
2019-Aug-17 17:29N 78°14' E 015°38'0 0.0
2019-Aug-17 16:59N 78°14' E 015°38'0 0.0
2019-Aug-17 16:29N 78°14' E 015°38'0 0.0
2019-Aug-17 15:59N 78°14' E 015°38'0 0.0
2019-Aug-17 15:29N 78°14' E 015°38'0 0.0
2019-Aug-17 14:59N 78°14' E 015°38'0 0.0
2019-Aug-17 14:29N 78°14' E 015°38'0 0.0
2019-Aug-17 13:59N 78°14' E 015°38'0 0.0
2019-Aug-17 13:29N 78°14' E 015°38'0 0.0
2019-Aug-17 12:59N 78°14' E 015°38'0 0.0
2019-Aug-17 12:29N 78°14' E 015°38'0 0.0
2019-Aug-17 11:59N 78°14' E 015°38'0 0.0
2019-Aug-17 11:29N 78°14' E 015°38'0 0.0
2019-Aug-17 10:59N 78°14' E 015°38'0 0.0
2019-Aug-17 10:29N 78°14' E 015°38'0 0.0
2019-Aug-17 09:59N 78°14' E 015°38'0 0.0
2019-Aug-17 09:30N 78°14' E 015°38'0 0.0
2019-Aug-17 09:00N 78°14' E 015°38'0 0.0
2019-Aug-17 08:30N 78°14' E 015°38'0 0.1
2019-Aug-17 07:59N 78°14' E 015°38'0 0.2
2019-Aug-17 07:30N 78°14' E 015°38'0 0.7
2019-Aug-17 06:59N 78°14' E 015°36'0 0.0
2019-Aug-17 06:29N 78°14' E 015°36'0 0.0
2019-Aug-17 05:59N 78°14' E 015°36'0 0.0
2019-Aug-17 05:29N 78°14' E 015°36'0 0.0
2019-Aug-17 04:59N 78°14' E 015°36'0 0.0
2019-Aug-17 04:29N 78°14' E 015°36'0 0.0
2019-Aug-17 03:59N 78°14' E 015°36'0 0.0
2019-Aug-17 03:29N 78°14' E 015°36'0 0.0
2019-Aug-17 02:59N 78°14' E 015°36'0 0.0
2019-Aug-17 02:29N 78°14' E 015°36'0 0.0
2019-Aug-17 01:59N 78°14' E 015°36'0 0.0
2019-Aug-17 01:29N 78°14' E 015°36'0 0.0
2019-Aug-17 00:59N 78°14' E 015°36'0 0.0
2019-Aug-17 00:29N 78°14' E 015°36'0 0.0
2019-Aug-16 23:59N 78°14' E 015°36'0 0.0
2019-Aug-16 23:29N 78°14' E 015°36'2 3.6
2019-Aug-16 23:00N 78°12' E 015°36'2254.1 1000.0
2019-Aug-16 22:59N 78°14' E 015°36'0 0.0
2019-Aug-16 22:29N 78°14' E 015°36'0 0.0
2019-Aug-16 22:00N 78°14' E 015°36'2276.1
2019-Aug-16 22:00N 78°12' E 015°36'2 3.6 1000.1
2019-Aug-16 21:30N 78°14' E 015°36'0 0.0
2019-Aug-16 21:00N 78°14' E 015°36'2486.9
2019-Aug-16 21:00N 78°12' E 015°36'2 3.6 999.8
2019-Aug-16 20:30N 78°14' E 015°36'0 0.1
2019-Aug-16 20:00N 78°14' E 015°36'2327.2
2019-Aug-16 20:00N 78°12' E 015°36'3 6.8 999.5
2019-Aug-16 19:30N 78°15' E 015°34'3 6.5
2019-Aug-16 19:00N 78°16' E 015°18'2794.4
2019-Aug-16 19:00N 78°18' E 015°18'4 7.5 999.6
2019-Aug-16 18:30N 78°15' E 015°06'4 6.9
2019-Aug-16 18:00N 78°18' E 014°54'31682.6 999.6
2019-Aug-16 17:59N 78°15' E 014°53'3 6.2
2019-Aug-16 17:30N 78°14' E 014°38'3 6.5
2019-Aug-16 17:00N 78°13' E 014°23'185.4
2019-Aug-16 17:00N 78°12' E 014°24'3 7.0 999.4
2019-Aug-16 16:30N 78°12' E 014°07'3 5.1
2019-Aug-16 16:00N 78°14' E 013°58'2346.1
2019-Aug-16 16:00N 78°12' E 014°00'3 5.2 999.5
2019-Aug-16 15:30N 78°15' E 013°58'0 0.2
2019-Aug-16 15:00N 78°15' E 013°58'3374.0
2019-Aug-16 15:00N 78°18' E 014°00'3 7.1 999.6
2019-Aug-16 14:30N 78°15' E 013°57'0 0.1
2019-Aug-16 14:00N 78°15' E 013°58'3382.8
2019-Aug-16 14:00N 78°18' E 014°00'3 6.9 999.4
2019-Aug-16 13:30N 78°15' E 013°58'0 0.3
2019-Aug-16 13:00N 78°14' E 013°58'34542.1
2019-Aug-16 13:00N 78°12' E 014°00'2 4.8 999.5
2019-Aug-16 12:30N 78°14' E 013°58'3 5.9
2019-Aug-16 12:00N 78°12' E 013°52'1158.5
2019-Aug-16 12:00N 78°12' E 013°54'5 9.3 999.6
2019-Aug-16 11:29N 78°10' E 013°32'510.8
2019-Aug-16 11:00N 78°10' E 013°07'2127.5
2019-Aug-16 11:00N 78°12' E 013°06'4 7.4 1000.0
2019-Aug-16 10:29N 78°13' E 012°49'4 7.7
2019-Aug-16 10:00N 78°17' E 012°52'13286.0
2019-Aug-16 10:00N 78°18' E 012°54'1 1.8 999.8
2019-Aug-16 09:30N 78°17' E 012°52'1 1.8
2019-Aug-16 09:00N 78°18' E 012°54'1 4.6 1000.0
2019-Aug-16 08:48N 78°17' E 012°52'0 0.0
2019-Aug-16 08:26N 78°17' E 012°52'0 0.0
2019-Aug-16 08:00N 78°17' E 012°52'1471.2
2019-Aug-16 08:00N 78°18' E 012°54'1 1.8 999.9
2019-Aug-16 07:30N 78°17' E 012°52'1 1.8
2019-Aug-16 07:00N 78°18' E 012°54'1 9.2 999.8
2019-Aug-16 06:54N 78°17' E 012°52'0 0.0
2019-Aug-16 06:30N 78°17' E 012°52'1 2.2
2019-Aug-16 06:00N 78°16' E 012°48'2181.2
2019-Aug-16 06:00N 78°18' E 012°48'612.0 999.5
2019-Aug-16 05:30N 78°13' E 012°33'4 8.8
2019-Aug-16 05:00N 78°10' E 012°17'5 9.7
2019-Aug-16 04:31N 78°09' E 011°55'5 8.9
2019-Aug-16 04:00N 78°11' E 011°36'12732.8
2019-Aug-16 04:00N 78°12' E 011°36'3 5.5 999.5
2019-Aug-16 03:30N 78°13' E 011°24'1 2.1
2019-Aug-16 03:00N 78°13' E 011°20'149.3
2019-Aug-16 03:00N 78°12' E 011°18'0 0.5 999.4
2019-Aug-16 02:30N 78°12' E 011°19'2 4.7
2019-Aug-16 02:01N 78°14' E 011°23'2142.1
2019-Aug-16 02:00N 78°12' E 011°24'511.0 999.4
2019-Aug-16 01:30N 78°17' E 011°16'4 7.1
2019-Aug-16 01:00N 78°20' E 011°08'4 7.9
2019-Aug-16 00:30N 78°24' E 010°59'910.4
2019-Aug-15 23:36N 78°32' E 010°38'810.6
2019-Aug-15 22:49N 78°39' E 010°18'910.6
2019-Aug-15 21:58N 78°48' E 010°10'510.0
2019-Aug-15 21:30N 78°53' E 010°06'5 9.9
2019-Aug-15 21:01N 78°58' E 010°01'5 9.9
2019-Aug-15 20:30N 79°03' E 009°57'5 9.7
2019-Aug-15 19:59N 79°08' E 009°53'5 9.9
2019-Aug-15 19:30N 79°12' E 009°48'510.0
2019-Aug-15 19:00N 79°17' E 009°44'  
2019-Aug-10 18:00N 80°24' E 011°36'23 1.4 1021.8
2019-Aug-10 02:00N 80°06' E 010°12'6 6.0 1021.6
2019-Aug-10 01:00N 80°00' E 010°12'6 6.0 1021.4
2019-Aug-10 00:00N 79°54' E 010°12'6 6.1 1021.2
2019-Aug-09 23:00N 79°48' E 010°18'6 6.0 1020.8
2019-Aug-09 22:00N 79°42' E 010°18'6 6.1 1020.1
2019-Aug-09 21:00N 79°36' E 010°24'1212.0 1019.0
2019-Aug-09 20:00N 79°24' E 010°30'3 6.2 1019.0
2019-Aug-09 19:32N 79°21' E 010°33'0 8.4
2019-Aug-09 19:30N 79°21' E 010°34'4 8.6
2019-Aug-09 19:00N 79°17' E 010°40'4 8.5
2019-Aug-09 18:30N 79°13' E 010°46'4 8.1
2019-Aug-09 18:00N 79°09' E 010°52'3246.7
2019-Aug-09 18:00N 79°12' E 010°54'714.0 1018.7
2019-Aug-09 17:30N 79°05' E 010°59'4 7.2
2019-Aug-09 17:00N 79°04' E 011°17'510.7
2019-Aug-09 16:30N 79°07' E 011°40'2 3.6
2019-Aug-09 16:00N 79°07' E 011°49'0 0.0
2019-Aug-09 15:30N 79°07' E 011°49'0 0.0
2019-Aug-09 14:57N 79°07' E 011°49'0 0.0
2019-Aug-09 14:30N 79°07' E 011°49'0 0.1
2019-Aug-09 14:00N 79°07' E 011°49'1768.6
2019-Aug-09 14:00N 79°06' E 011°48'2 3.0 1018.5
2019-Aug-09 13:29N 79°07' E 011°49'0 0.1
2019-Aug-09 13:00N 79°08' E 011°50'0 0.0
2019-Aug-09 12:30N 79°08' E 011°49'2 4.2
2019-Aug-09 12:00N 79°06' E 011°40'5 9.5
2019-Aug-09 11:30N 79°02' E 011°37'611.1
2019-Aug-09 11:00N 78°57' E 011°54'1 2.0
2019-Aug-09 10:28N 78°56' E 011°56'0 0.0
2019-Aug-09 09:58N 78°56' E 011°56'0 0.0
2019-Aug-09 09:28N 78°56' E 011°56'0 0.0
2019-Aug-09 08:58N 78°56' E 011°56'0 0.0
2019-Aug-09 08:28N 78°56' E 011°56'0 0.0
2019-Aug-09 07:58N 78°56' E 011°56'0 0.0
2019-Aug-09 07:28N 78°56' E 011°56'0 0.0
2019-Aug-09 06:58N 78°56' E 011°56'1 1.2
2019-Aug-09 06:30N 78°57' E 011°55'510.3
2019-Aug-09 06:00N 78°59' E 011°32'1287.9
2019-Aug-09 06:00N 79°00' E 011°36'4 9.1 1018.6
2019-Aug-09 05:30N 79°01' E 011°13'1 1.2
2019-Aug-09 05:00N 79°00' E 011°11'3 5.6
2019-Aug-09 04:30N 78°59' E 010°57'3 5.5
2019-Aug-09 04:00N 78°59' E 010°43'3 5.8
2019-Aug-09 03:30N 78°58' E 010°29'3 6.2
2019-Aug-09 03:00N 78°57' E 010°14'3369.3
2019-Aug-09 03:00N 79°00' E 010°18'1111.1 1019.2
2019-Aug-09 02:00N 78°49' E 010°14'193.5
2019-Aug-09 02:00N 78°48' E 010°12'5 8.5 1019.4
2019-Aug-09 01:21N 78°43' E 010°16'1 2.0
2019-Aug-09 01:00N 78°42' E 010°18'523.0 1019.4
2019-Aug-09 00:46N 78°37' E 010°24'410.1
2019-Aug-09 00:21N 78°33' E 010°32'3 9.1
2019-Aug-09 00:00N 78°30' E 010°36'116.0 1019.5
2019-Aug-08 23:55N 78°29' E 010°41'410.0
2019-Aug-08 23:28N 78°25' E 010°51'510.0
2019-Aug-08 23:00N 78°21' E 011°03'3192.7
2019-Aug-08 23:00N 78°24' E 011°00'816.1 1019.4
2019-Aug-08 22:30N 78°17' E 011°16'510.1
2019-Aug-08 22:00N 78°13' E 011°30'166.2
2019-Aug-08 22:00N 78°12' E 011°30'5 9.6 1019.5
2019-Aug-08 21:30N 78°09' E 011°48'510.9
2019-Aug-08 21:00N 78°09' E 012°14'3258.3
2019-Aug-08 21:00N 78°12' E 012°12'   1019.2
Track history (hours):
 
Tides and Currents Weather Stations Pressure Air Temp Water Temp Dewpoint Dewpoint Depression Visibility Wind Speed Wind Dir Waves Ship Positions

Plancius

Last reported at 2019-Aug-18 20:39 UTC. Time now 2019-Aug-22 10:09 UTC.
Position N 79°21' E 009°41'.

Length 90 m; draft 5.2 m.

Type: Passenger vessel. MMSI: 246573000.

Date/timePositionNaut miles runAvg speedWind from/ knotsBaromVisibWave heightAir tempDewpointWater temp
2019-Aug-18 20:39N 79°21' E 009°41'210.5
2019-Aug-18 20:29N 79°20' E 009°43'510.7
2019-Aug-18 20:00N 79°14' E 009°50'510.4
2019-Aug-18 19:30N 79°10' E 009°58'510.8
2019-Aug-18 19:00N 79°07' E 010°23'610.8
2019-Aug-18 18:30N 79°04' E 010°48'510.8
2019-Aug-18 18:00N 79°02' E 011°14'1 2.5
2019-Aug-18 17:29N 79°02' E 011°21'3 6.1
2019-Aug-18 17:00N 78°60' E 011°31'5 9.6
2019-Aug-18 16:29N 78°57' E 011°53'1 2.0
2019-Aug-18 15:59N 78°56' E 011°55'0 0.0
2019-Aug-18 15:29N 78°56' E 011°55'0 0.0
2019-Aug-18 14:59N 78°56' E 011°55'0 0.0
2019-Aug-18 14:29N 78°56' E 011°55'0 0.0
2019-Aug-18 13:59N 78°56' E 011°55'0 0.0
2019-Aug-18 13:29N 78°56' E 011°55'1 1.5
2019-Aug-18 13:00N 78°56' E 011°59'5 9.7
2019-Aug-18 12:29N 78°54' E 012°22'0 0.9
2019-Aug-18 12:00N 78°54' E 012°20'3 5.4
2019-Aug-18 11:30N 78°55' E 012°08'2 4.0
2019-Aug-18 11:00N 78°57' E 012°04'0 0.0
2019-Aug-18 10:30N 78°57' E 012°04'0 0.0
2019-Aug-18 10:00N 78°57' E 012°04'0 0.0
2019-Aug-18 09:30N 78°57' E 012°04'0 0.0
2019-Aug-18 09:00N 78°57' E 012°04'0 0.0
2019-Aug-18 08:30N 78°57' E 012°04'0 0.0
2019-Aug-18 08:00N 78°57' E 012°04'3 3.4
2019-Aug-18 07:00N 78°59' E 011°47'0 0.5
2019-Aug-18 06:30N 78°58' E 011°46'3 5.4
2019-Aug-18 06:00N 78°59' E 011°33'4 8.0
2019-Aug-18 05:30N 78°60' E 011°13'4 8.2
2019-Aug-18 05:00N 78°59' E 010°51'4 8.1
2019-Aug-18 04:30N 78°58' E 010°30'4 8.7
2019-Aug-18 04:00N 78°56' E 010°11'710.8
2019-Aug-18 03:19N 78°49' E 010°13'1010.8
2019-Aug-18 02:25N 78°39' E 010°19'1310.9
2019-Aug-18 01:12N 78°27' E 010°46'210.4
2019-Aug-18 01:00N 78°25' E 010°52'510.2
2019-Aug-18 00:28N 78°20' E 011°05'510.2
2019-Aug-18 00:00N 78°16' E 011°17'510.4
2019-Aug-17 23:30N 78°12' E 011°32'510.7
2019-Aug-17 23:00N 78°08' E 011°51'510.7
2019-Aug-17 22:30N 78°09' E 012°17'510.8
2019-Aug-17 22:00N 78°09' E 012°44'510.9
2019-Aug-17 21:30N 78°10' E 013°10'510.7
2019-Aug-17 21:00N 78°10' E 013°36'510.7
2019-Aug-17 20:30N 78°12' E 014°01'510.5
2019-Aug-17 20:00N 78°13' E 014°26'510.4
2019-Aug-17 19:30N 78°14' E 014°50'5 9.9
2019-Aug-17 19:00N 78°16' E 015°14'5 9.1
2019-Aug-17 18:30N 78°15' E 015°36'1 1.0
2019-Aug-17 17:29N 78°14' E 015°38'0 0.0
2019-Aug-17 16:59N 78°14' E 015°38'0 0.0
2019-Aug-17 16:29N 78°14' E 015°38'0 0.0
2019-Aug-17 15:59N 78°14' E 015°38'0 0.0
2019-Aug-17 15:29N 78°14' E 015°38'0 0.0
2019-Aug-17 14:59N 78°14' E 015°38'0 0.0
2019-Aug-17 14:29N 78°14' E 015°38'0 0.0
2019-Aug-17 13:59N 78°14' E 015°38'0 0.0
2019-Aug-17 13:29N 78°14' E 015°38'0 0.0
2019-Aug-17 12:59N 78°14' E 015°38'0 0.0
2019-Aug-17 12:29N 78°14' E 015°38'0 0.0
2019-Aug-17 11:59N 78°14' E 015°38'0 0.0
2019-Aug-17 11:29N 78°14' E 015°38'0 0.0
2019-Aug-17 10:59N 78°14' E 015°38'0 0.0
2019-Aug-17 10:29N 78°14' E 015°38'0 0.0
2019-Aug-17 09:59N 78°14' E 015°38'0 0.0
2019-Aug-17 09:30N 78°14' E 015°38'0 0.0
2019-Aug-17 09:00N 78°14' E 015°38'0 0.0
2019-Aug-17 08:30N 78°14' E 015°38'0 0.1
2019-Aug-17 07:59N 78°14' E 015°38'0 0.2
2019-Aug-17 07:30N 78°14' E 015°38'0 0.7
2019-Aug-17 06:59N 78°14' E 015°36'0 0.0
2019-Aug-17 06:29N 78°14' E 015°36'0 0.0
2019-Aug-17 05:59N 78°14' E 015°36'0 0.0
2019-Aug-17 05:29N 78°14' E 015°36'0 0.0
2019-Aug-17 04:59N 78°14' E 015°36'0 0.0
2019-Aug-17 04:29N 78°14' E 015°36'0 0.0
2019-Aug-17 03:59N 78°14' E 015°36'0 0.0
2019-Aug-17 03:29N 78°14' E 015°36'0 0.0
2019-Aug-17 02:59N 78°14' E 015°36'0 0.0
2019-Aug-17 02:29N 78°14' E 015°36'0 0.0
2019-Aug-17 01:59N 78°14' E 015°36'0 0.0
2019-Aug-17 01:29N 78°14' E 015°36'0 0.0
2019-Aug-17 00:59N 78°14' E 015°36'0 0.0
2019-Aug-17 00:29N 78°14' E 015°36'0 0.0
2019-Aug-16 23:59N 78°14' E 015°36'0 0.0
2019-Aug-16 23:29N 78°14' E 015°36'2 3.6
2019-Aug-16 23:00N 78°12' E 015°36'2254.1 1000.0
2019-Aug-16 22:59N 78°14' E 015°36'0 0.0
2019-Aug-16 22:29N 78°14' E 015°36'0 0.0
2019-Aug-16 22:00N 78°14' E 015°36'2276.1
2019-Aug-16 22:00N 78°12' E 015°36'2 3.6 1000.1
2019-Aug-16 21:30N 78°14' E 015°36'0 0.0
2019-Aug-16 21:00N 78°14' E 015°36'2486.9
2019-Aug-16 21:00N 78°12' E 015°36'2 3.6 999.8
2019-Aug-16 20:30N 78°14' E 015°36'0 0.1
2019-Aug-16 20:00N 78°14' E 015°36'2327.2
2019-Aug-16 20:00N 78°12' E 015°36'3 6.8 999.5
2019-Aug-16 19:30N 78°15' E 015°34'3 6.5
2019-Aug-16 19:00N 78°16' E 015°18'2794.4
2019-Aug-16 19:00N 78°18' E 015°18'4 7.5 999.6
2019-Aug-16 18:30N 78°15' E 015°06'4 6.9
2019-Aug-16 18:00N 78°18' E 014°54'31682.6 999.6
2019-Aug-16 17:59N 78°15' E 014°53'3 6.2
2019-Aug-16 17:30N 78°14' E 014°38'3 6.5
2019-Aug-16 17:00N 78°13' E 014°23'185.4
2019-Aug-16 17:00N 78°12' E 014°24'3 7.0 999.4
2019-Aug-16 16:30N 78°12' E 014°07'3 5.1
2019-Aug-16 16:00N 78°14' E 013°58'2346.1
2019-Aug-16 16:00N 78°12' E 014°00'3 5.2 999.5
2019-Aug-16 15:30N 78°15' E 013°58'0 0.2
2019-Aug-16 15:00N 78°15' E 013°58'3374.0
2019-Aug-16 15:00N 78°18' E 014°00'3 7.1 999.6
2019-Aug-16 14:30N 78°15' E 013°57'0 0.1
2019-Aug-16 14:00N 78°15' E 013°58'3382.8
2019-Aug-16 14:00N 78°18' E 014°00'3 6.9 999.4
2019-Aug-16 13:30N 78°15' E 013°58'0 0.3
2019-Aug-16 13:00N 78°14' E 013°58'34542.1
2019-Aug-16 13:00N 78°12' E 014°00'2 4.8 999.5
2019-Aug-16 12:30N 78°14' E 013°58'3 5.9
2019-Aug-16 12:00N 78°12' E 013°52'1158.5
2019-Aug-16 12:00N 78°12' E 013°54'5 9.3 999.6
2019-Aug-16 11:29N 78°10' E 013°32'510.8
2019-Aug-16 11:00N 78°10' E 013°07'2127.5
2019-Aug-16 11:00N 78°12' E 013°06'4 7.4 1000.0
2019-Aug-16 10:29N 78°13' E 012°49'4 7.7
2019-Aug-16 10:00N 78°17' E 012°52'13286.0
2019-Aug-16 10:00N 78°18' E 012°54'1 1.8 999.8
2019-Aug-16 09:30N 78°17' E 012°52'1 1.8
2019-Aug-16 09:00N 78°18' E 012°54'1 4.6 1000.0
2019-Aug-16 08:48N 78°17' E 012°52'0 0.0
2019-Aug-16 08:26N 78°17' E 012°52'0 0.0
2019-Aug-16 08:00N 78°17' E 012°52'1471.2
2019-Aug-16 08:00N 78°18' E 012°54'1 1.8 999.9
2019-Aug-16 07:30N 78°17' E 012°52'1 1.8
2019-Aug-16 07:00N 78°18' E 012°54'1 9.2 999.8
2019-Aug-16 06:54N 78°17' E 012°52'0 0.0
2019-Aug-16 06:30N 78°17' E 012°52'1 2.2
2019-Aug-16 06:00N 78°16' E 012°48'2181.2
2019-Aug-16 06:00N 78°18' E 012°48'612.0 999.5
2019-Aug-16 05:30N 78°13' E 012°33'4 8.8
2019-Aug-16 05:00N 78°10' E 012°17'5 9.7
2019-Aug-16 04:31N 78°09' E 011°55'5 8.9
2019-Aug-16 04:00N 78°11' E 011°36'12732.8
2019-Aug-16 04:00N 78°12' E 011°36'3 5.5 999.5
2019-Aug-16 03:30N 78°13' E 011°24'1 2.1
2019-Aug-16 03:00N 78°13' E 011°20'149.3
2019-Aug-16 03:00N 78°12' E 011°18'0 0.5 999.4
2019-Aug-16 02:30N 78°12' E 011°19'2 4.7
2019-Aug-16 02:01N 78°14' E 011°23'2142.1
2019-Aug-16 02:00N 78°12' E 011°24'511.0 999.4
2019-Aug-16 01:30N 78°17' E 011°16'4 7.1
2019-Aug-16 01:00N 78°20' E 011°08'4 7.9
2019-Aug-16 00:30N 78°24' E 010°59'910.4
2019-Aug-15 23:36N 78°32' E 010°38'810.6
2019-Aug-15 22:49N 78°39' E 010°18'910.6
2019-Aug-15 21:58N 78°48' E 010°10'510.0
2019-Aug-15 21:30N 78°53' E 010°06'5 9.9
2019-Aug-15 21:01N 78°58' E 010°01'5 9.9
2019-Aug-15 20:30N 79°03' E 009°57'5 9.7
2019-Aug-15 19:59N 79°08' E 009°53'5 9.9
2019-Aug-15 19:30N 79°12' E 009°48'510.0
2019-Aug-15 19:00N 79°17' E 009°44'  
2019-Aug-10 18:00N 80°24' E 011°36'23 1.4 1021.8
2019-Aug-10 02:00N 80°06' E 010°12'6 6.0 1021.6
2019-Aug-10 01:00N 80°00' E 010°12'6 6.0 1021.4
2019-Aug-10 00:00N 79°54' E 010°12'6 6.1 1021.2
2019-Aug-09 23:00N 79°48' E 010°18'6 6.0 1020.8
2019-Aug-09 22:00N 79°42' E 010°18'6 6.1 1020.1
2019-Aug-09 21:00N 79°36' E 010°24'1212.0 1019.0
2019-Aug-09 20:00N 79°24' E 010°30'3 6.2 1019.0
2019-Aug-09 19:32N 79°21' E 010°33'0 8.4
2019-Aug-09 19:30N 79°21' E 010°34'4 8.6
2019-Aug-09 19:00N 79°17' E 010°40'4 8.5
2019-Aug-09 18:30N 79°13' E 010°46'4 8.1
2019-Aug-09 18:00N 79°09' E 010°52'3246.7
2019-Aug-09 18:00N 79°12' E 010°54'714.0 1018.7
2019-Aug-09 17:30N 79°05' E 010°59'4 7.2
2019-Aug-09 17:00N 79°04' E 011°17'510.7
2019-Aug-09 16:30N 79°07' E 011°40'2 3.6
2019-Aug-09 16:00N 79°07' E 011°49'0 0.0
2019-Aug-09 15:30N 79°07' E 011°49'0 0.0
2019-Aug-09 14:57N 79°07' E 011°49'0 0.0
2019-Aug-09 14:30N 79°07' E 011°49'0 0.1
2019-Aug-09 14:00N 79°07' E 011°49'1768.6
2019-Aug-09 14:00N 79°06' E 011°48'2 3.0 1018.5
2019-Aug-09 13:29N 79°07' E 011°49'0 0.1
2019-Aug-09 13:00N 79°08' E 011°50'0 0.0
2019-Aug-09 12:30N 79°08' E 011°49'2 4.2
2019-Aug-09 12:00N 79°06' E 011°40'5 9.5
2019-Aug-09 11:30N 79°02' E 011°37'611.1
2019-Aug-09 11:00N 78°57' E 011°54'1 2.0
2019-Aug-09 10:28N 78°56' E 011°56'0 0.0
2019-Aug-09 09:58N 78°56' E 011°56'0 0.0
2019-Aug-09 09:28N 78°56' E 011°56'0 0.0
2019-Aug-09 08:58N 78°56' E 011°56'0 0.0
2019-Aug-09 08:28N 78°56' E 011°56'0 0.0
2019-Aug-09 07:58N 78°56' E 011°56'0 0.0
2019-Aug-09 07:28N 78°56' E 011°56'0 0.0
2019-Aug-09 06:58N 78°56' E 011°56'1 1.2
2019-Aug-09 06:30N 78°57' E 011°55'510.3
2019-Aug-09 06:00N 78°59' E 011°32'1287.9
2019-Aug-09 06:00N 79°00' E 011°36'4 9.1 1018.6
2019-Aug-09 05:30N 79°01' E 011°13'1 1.2
2019-Aug-09 05:00N 79°00' E 011°11'3 5.6
2019-Aug-09 04:30N 78°59' E 010°57'3 5.5
2019-Aug-09 04:00N 78°59' E 010°43'3 5.8
2019-Aug-09 03:30N 78°58' E 010°29'3 6.2
2019-Aug-09 03:00N 78°57' E 010°14'3369.3
2019-Aug-09 03:00N 79°00' E 010°18'1111.1 1019.2
2019-Aug-09 02:00N 78°49' E 010°14'193.5
2019-Aug-09 02:00N 78°48' E 010°12'5 8.5 1019.4
2019-Aug-09 01:21N 78°43' E 010°16'1 2.0
2019-Aug-09 01:00N 78°42' E 010°18'523.0 1019.4
2019-Aug-09 00:46N 78°37' E 010°24'410.1
2019-Aug-09 00:21N 78°33' E 010°32'3 9.1
2019-Aug-09 00:00N 78°30' E 010°36'116.0 1019.5
2019-Aug-08 23:55N 78°29' E 010°41'410.0
2019-Aug-08 23:28N 78°25' E 010°51'510.0
2019-Aug-08 23:00N 78°21' E 011°03'3192.7
2019-Aug-08 23:00N 78°24' E 011°00'816.1 1019.4
2019-Aug-08 22:30N 78°17' E 011°16'510.1
2019-Aug-08 22:00N 78°13' E 011°30'166.2
2019-Aug-08 22:00N 78°12' E 011°30'5 9.6 1019.5
2019-Aug-08 21:30N 78°09' E 011°48'510.9
2019-Aug-08 21:00N 78°09' E 012°14'3258.3
2019-Aug-08 21:00N 78°12' E 012°12'   1019.2

Dump ship's entire track history